createdAt,value
2018-02-25T00:00:20.628Z,99.90
2018-02-25T00:02:48.452Z,99.90
2018-02-25T00:05:15.970Z,99.90
2018-02-25T00:07:43.448Z,99.90
2018-02-25T00:10:11.299Z,99.90
2018-02-25T00:12:38.801Z,99.90
2018-02-25T00:15:06.280Z,99.90
2018-02-25T00:17:34.853Z,99.90
2018-02-25T00:20:02.340Z,99.90
2018-02-25T00:22:29.805Z,99.90
2018-02-25T00:24:57.664Z,99.90
2018-02-25T00:27:25.146Z,99.90
2018-02-25T00:29:52.623Z,99.90
2018-02-25T00:32:21.971Z,99.90
2018-02-25T00:34:49.472Z,99.90
2018-02-25T00:37:16.959Z,99.90
2018-02-25T00:39:44.844Z,99.90
2018-02-25T00:42:12.438Z,99.90
2018-02-25T00:44:39.937Z,99.90
2018-02-25T00:47:07.521Z,99.90
2018-02-25T00:49:35.757Z,99.90
2018-02-25T00:52:03.230Z,99.90
2018-02-25T00:54:30.997Z,99.90
2018-02-25T00:56:58.590Z,99.90
2018-02-25T00:59:26.082Z,99.90
2018-02-25T01:01:53.899Z,99.90
2018-02-25T01:04:21.419Z,99.90
2018-02-25T01:06:48.893Z,99.90
2018-02-25T01:09:16.680Z,99.90
2018-02-25T01:11:44.176Z,99.90
2018-02-25T01:14:11.704Z,99.90
2018-02-25T01:16:39.664Z,99.90
2018-02-25T01:19:07.911Z,99.90
2018-02-25T01:21:35.408Z,99.90
2018-02-25T01:24:02.914Z,99.90
2018-02-25T01:26:30.389Z,99.90
2018-02-25T01:28:57.874Z,99.90
2018-02-25T01:31:26.567Z,99.90
2018-02-25T01:33:54.047Z,99.90
2018-02-25T01:36:21.526Z,99.90
2018-02-25T01:38:49.360Z,99.90
2018-02-25T01:41:16.929Z,99.90
2018-02-25T01:43:44.439Z,99.90
2018-02-25T01:46:12.191Z,99.90
2018-02-25T01:48:39.704Z,99.90
2018-02-25T01:51:07.171Z,99.90
2018-02-25T01:53:34.989Z,99.90
2018-02-25T01:56:03.257Z,99.90
2018-02-25T01:58:30.734Z,99.90
2018-02-25T02:00:58.611Z,99.90
2018-02-25T02:03:26.097Z,99.90
2018-02-25T02:05:53.602Z,99.90
2018-02-25T02:08:22.183Z,99.90
2018-02-25T02:10:50.415Z,99.90
2018-02-25T02:13:17.895Z,99.90
2018-02-25T02:15:45.785Z,99.90
2018-02-25T02:18:13.300Z,99.90
2018-02-25T02:20:40.784Z,99.90
2018-02-25T02:23:08.590Z,99.90
2018-02-25T02:25:36.096Z,99.90
2018-02-25T02:28:03.560Z,99.90
2018-02-25T02:30:31.328Z,99.90
2018-02-25T02:32:58.813Z,99.90
2018-02-25T02:35:27.090Z,99.90
2018-02-25T02:37:54.833Z,99.90
2018-02-25T02:40:22.328Z,99.90
2018-02-25T02:42:49.815Z,99.90
2018-02-25T02:45:17.625Z,99.90
2018-02-25T02:47:45.859Z,99.90
2018-02-25T02:50:13.340Z,99.90
2018-02-25T02:52:41.245Z,99.90
2018-02-25T02:55:08.720Z,99.90
2018-02-25T02:57:36.237Z,99.90
2018-02-25T03:00:04.810Z,99.90
2018-02-25T03:02:32.292Z,99.90
2018-02-25T03:04:59.800Z,99.90
2018-02-25T03:07:28.321Z,99.90
2018-02-25T03:09:56.564Z,99.90
2018-02-25T03:12:24.040Z,99.90
2018-02-25T03:14:52.619Z,99.90
2018-02-25T03:17:20.159Z,99.90
2018-02-25T03:19:47.661Z,99.90
2018-02-25T03:22:15.497Z,99.90
2018-02-25T03:24:42.972Z,99.90
2018-02-25T03:27:11.222Z,99.90
2018-02-25T03:29:39.014Z,99.90
2018-02-25T03:32:07.249Z,99.90
2018-02-25T03:34:34.751Z,99.90
2018-02-25T03:37:03.332Z,99.90
2018-02-25T03:39:31.606Z,99.90
2018-02-25T03:41:59.852Z,99.90
2018-02-25T03:44:27.649Z,99.90
2018-02-25T03:46:55.900Z,99.90
2018-02-25T03:49:23.376Z,99.90
2018-02-25T03:51:51.975Z,99.90
2018-02-25T03:54:19.448Z,99.90
2018-02-25T03:56:46.915Z,99.90
2018-02-25T03:59:14.678Z,99.90
2018-02-25T04:01:42.152Z,99.90
2018-02-25T04:04:09.652Z,99.90
2018-02-25T04:06:38.205Z,99.90
2018-02-25T04:09:05.847Z,99.90
2018-02-25T04:11:33.309Z,99.90
2018-02-25T04:14:01.123Z,99.90
2018-02-25T04:16:29.434Z,99.90
2018-02-25T04:18:56.928Z,99.90
2018-02-25T04:21:24.725Z,99.90
2018-02-25T04:23:52.995Z,99.90
2018-02-25T04:26:21.272Z,99.90
2018-02-25T04:28:49.136Z,99.90
2018-02-25T04:31:17.379Z,99.90
2018-02-25T04:33:44.871Z,99.90
2018-02-25T04:36:12.728Z,99.90
2018-02-25T04:38:40.237Z,99.90
2018-02-25T04:41:07.729Z,99.90
2018-02-25T04:43:35.632Z,99.90
2018-02-25T04:46:03.196Z,99.90
2018-02-25T04:48:30.673Z,99.90
2018-02-25T04:50:58.499Z,99.90
2018-02-25T04:53:26.754Z,99.90
2018-02-25T04:55:54.221Z,99.90
2018-02-25T04:58:22.764Z,99.90
2018-02-25T05:00:50.260Z,99.90
2018-02-25T05:03:17.736Z,99.90
2018-02-25T05:05:45.635Z,99.90
2018-02-25T05:08:13.122Z,99.90
2018-02-25T05:10:40.595Z,99.90
2018-02-25T05:13:09.133Z,99.90
2018-02-25T05:15:36.611Z,99.90
2018-02-25T05:18:05.083Z,99.90
2018-02-25T05:20:32.891Z,99.90
2018-02-25T05:23:01.141Z,99.90
2018-02-25T05:25:28.620Z,99.90
2018-02-25T05:27:57.216Z,99.90
2018-02-25T05:30:24.809Z,99.90
2018-02-25T05:32:52.277Z,99.90
2018-02-25T05:35:20.384Z,99.90
2018-02-25T05:37:47.855Z,99.90
2018-02-25T05:40:16.111Z,99.90
2018-02-25T05:42:44.001Z,99.90
2018-02-25T05:45:12.240Z,99.90
2018-02-25T05:47:39.719Z,99.90
2018-02-25T05:50:07.484Z,99.90
2018-02-25T05:52:35.738Z,99.90
2018-02-25T05:55:04.007Z,99.90
2018-02-25T05:57:31.846Z,99.90
2018-02-25T05:59:59.341Z,99.90
2018-02-25T06:02:26.821Z,99.90
2018-02-25T06:04:55.349Z,99.90
2018-02-25T06:07:22.832Z,99.90
2018-02-25T06:09:50.321Z,99.90
2018-02-25T06:12:18.827Z,99.90
2018-02-25T06:14:46.300Z,99.90
2018-02-25T06:17:13.763Z,99.90
2018-02-25T06:19:41.575Z,99.90
2018-02-25T06:22:09.833Z,99.90
2018-02-25T06:24:37.327Z,99.90
2018-02-25T06:27:05.177Z,99.90
2018-02-25T06:29:33.432Z,99.90
2018-02-25T06:32:00.917Z,99.90
2018-02-25T06:34:29.482Z,99.90
2018-02-25T06:36:56.967Z,99.90
2018-02-25T06:39:24.447Z,99.90
2018-02-25T06:41:51.960Z,99.90
2018-02-25T06:44:20.212Z,99.90
2018-02-25T06:46:47.698Z,99.90
2018-02-25T06:49:16.323Z,99.90
2018-02-25T06:51:43.808Z,99.90
2018-02-25T06:54:12.096Z,99.90
2018-02-25T06:56:40.132Z,99.90
2018-02-25T06:59:07.596Z,99.90
2018-02-25T07:01:35.062Z,99.90
2018-02-25T07:04:02.873Z,99.90
2018-02-25T07:06:30.388Z,99.90
2018-02-25T07:08:57.863Z,99.90
2018-02-25T07:11:25.751Z,99.90
2018-02-25T07:13:53.261Z,99.90
2018-02-25T07:16:20.736Z,99.90
2018-02-25T07:18:48.260Z,99.90
2018-02-25T07:21:15.827Z,99.90
2018-02-25T07:23:43.333Z,99.90
2018-02-25T07:26:11.939Z,99.90
2018-02-25T07:28:39.422Z,99.90
2018-02-25T07:31:06.895Z,99.90
2018-02-25T07:33:34.380Z,99.90
2018-02-25T07:36:01.861Z,99.90
2018-02-25T07:38:30.104Z,99.90
2018-02-25T07:40:58.104Z,99.90
2018-02-25T07:43:26.367Z,99.90
2018-02-25T07:45:54.687Z,99.90
2018-02-25T07:48:22.249Z,99.90
2018-02-25T07:50:50.478Z,99.90
2018-02-25T07:53:17.940Z,99.90
2018-02-25T07:55:46.228Z,99.90
2018-02-25T07:58:13.755Z,99.90
2018-02-25T08:00:41.221Z,99.90
2018-02-25T08:03:08.704Z,99.90
2018-02-25T08:05:36.183Z,99.90
2018-02-25T08:08:03.644Z,99.90
2018-02-25T08:10:31.159Z,99.90
2018-02-25T08:12:59.430Z,99.90
2018-02-25T08:15:27.718Z,99.90
2018-02-25T08:17:55.230Z,99.90
2018-02-25T08:20:22.770Z,98.90
2018-02-25T08:22:50.244Z,96.30
2018-02-25T08:25:18.463Z,97.00
2018-02-25T08:27:46.694Z,96.90
2018-02-25T08:30:14.251Z,96.80
2018-02-25T08:32:42.086Z,96.00
2018-02-25T08:35:09.570Z,92.70
2018-02-25T08:37:37.047Z,90.80
2018-02-25T08:40:04.833Z,87.20
2018-02-25T08:42:32.339Z,82.00
2018-02-25T08:44:59.799Z,83.40
2018-02-25T08:47:27.619Z,80.40
2018-02-25T08:49:55.852Z,82.00
2018-02-25T08:52:23.343Z,81.90
2018-02-25T08:54:51.943Z,82.00
2018-02-25T08:57:20.172Z,82.00
2018-02-25T08:59:47.650Z,81.90
2018-02-25T09:02:15.144Z,80.20
2018-02-25T09:04:42.656Z,75.90
2018-02-25T09:07:10.129Z,72.10
2018-02-25T09:09:38.719Z,69.80
2018-02-25T09:12:06.979Z,71.00
2018-02-25T09:14:34.462Z,71.00
2018-02-25T09:17:03.030Z,64.10
2018-02-25T09:19:30.503Z,64.10
2018-02-25T09:21:58.749Z,59.60
2018-02-25T09:24:26.265Z,59.60
2018-02-25T09:26:53.810Z,57.70
2018-02-25T09:29:21.384Z,61.70
2018-02-25T09:31:49.168Z,59.30
2018-02-25T09:34:16.710Z,57.00
2018-02-25T09:36:44.225Z,56.50
2018-02-25T09:39:12.009Z,55.10
2018-02-25T09:41:39.478Z,55.00
2018-02-25T09:44:07.728Z,55.30
2018-02-25T09:46:36.311Z,53.40
2018-02-25T09:49:04.558Z,53.40
2018-02-25T09:51:32.093Z,53.30
2018-02-25T09:53:59.903Z,56.90
2018-02-25T09:56:28.227Z,55.40
2018-02-25T09:58:55.696Z,55.40
2018-02-25T10:01:23.173Z,55.30
2018-02-25T10:03:50.628Z,53.60
2018-02-25T10:06:18.136Z,56.50
2018-02-25T10:08:45.629Z,55.80
2018-02-25T10:11:13.120Z,55.60
2018-02-25T10:13:41.453Z,57.00
2018-02-25T10:16:08.979Z,56.90
2018-02-25T10:18:36.508Z,55.80
2018-02-25T10:21:04.784Z,54.10
2018-02-25T10:23:32.336Z,54.00
2018-02-25T10:25:59.952Z,54.60
2018-02-25T10:28:27.459Z,54.30
2018-02-25T10:30:54.969Z,52.50
2018-02-25T10:33:22.499Z,54.40
2018-02-25T10:35:50.742Z,58.70
2018-02-25T10:38:18.529Z,58.70
2018-02-25T10:40:46.845Z,54.40
2018-02-25T10:43:14.315Z,54.30
2018-02-25T10:45:42.226Z,54.20
2018-02-25T10:48:09.962Z,51.70
2018-02-25T10:50:37.446Z,51.30
2018-02-25T10:53:06.032Z,51.30
2018-02-25T10:55:34.352Z,49.70
2018-02-25T10:58:01.872Z,49.70
2018-02-25T11:00:36.396Z,48.90
2018-02-25T11:03:04.671Z,50.60
2018-02-25T11:05:32.927Z,48.40
2018-02-25T11:08:00.443Z,48.40
2018-02-25T11:10:27.948Z,48.40
2018-02-25T11:12:55.425Z,48.60
2018-02-25T11:15:23.283Z,50.60
2018-02-25T11:17:50.771Z,51.10
2018-02-25T11:20:18.266Z,53.10
2018-02-25T11:22:46.164Z,51.50
2018-02-25T11:25:14.405Z,50.30
2018-02-25T11:27:42.701Z,48.80
2018-02-25T11:30:10.503Z,48.80
2018-02-25T11:32:37.993Z,48.00
2018-02-25T11:35:05.499Z,48.90
2018-02-25T11:37:34.116Z,47.30
2018-02-25T11:40:02.394Z,47.30
2018-02-25T11:42:29.870Z,47.00
2018-02-25T11:44:57.669Z,47.20
2018-02-25T11:47:25.943Z,49.60
2018-02-25T11:49:53.424Z,49.60
2018-02-25T11:52:21.163Z,48.10
2018-02-25T11:54:48.639Z,46.30
2018-02-25T11:57:16.130Z,45.10
2018-02-25T11:59:43.945Z,45.40
2018-02-25T12:02:12.265Z,43.80
2018-02-25T12:04:39.767Z,43.80
2018-02-25T12:07:07.641Z,44.90
2018-02-25T12:09:35.114Z,44.50
2018-02-25T12:12:02.612Z,45.40
2018-02-25T12:14:30.858Z,47.30
2018-02-25T12:16:58.316Z,47.30
2018-02-25T12:19:25.810Z,48.00
2018-02-25T12:21:53.613Z,48.40
2018-02-25T12:24:21.858Z,48.90
2018-02-25T12:26:49.347Z,48.90
2018-02-25T12:29:17.944Z,47.80
2018-02-25T12:31:46.207Z,47.10
2018-02-25T12:34:14.552Z,48.10
2018-02-25T12:36:42.056Z,48.00
2018-02-25T12:39:09.529Z,48.60
2018-02-25T12:41:37.008Z,47.80
2018-02-25T12:44:04.875Z,47.70
2018-02-25T12:46:32.351Z,48.30
2018-02-25T12:48:59.848Z,48.20
2018-02-25T12:51:28.315Z,46.20
2018-02-25T12:53:55.832Z,46.10
2018-02-25T12:56:23.303Z,48.30
2018-02-25T12:58:51.091Z,47.70
2018-02-25T13:01:19.339Z,48.80
2018-02-25T13:03:46.804Z,48.80
2018-02-25T13:06:14.599Z,49.60
2018-02-25T13:08:42.844Z,49.40
2018-02-25T13:11:10.328Z,49.40
2018-02-25T13:13:38.863Z,50.90
2018-02-25T13:16:06.417Z,51.00
2018-02-25T13:18:33.903Z,49.40
2018-02-25T13:21:01.735Z,51.00
2018-02-25T13:23:29.220Z,50.80
2018-02-25T13:25:56.699Z,50.40
2018-02-25T13:28:25.322Z,51.00
2018-02-25T13:30:53.515Z,51.00
2018-02-25T13:33:21.047Z,50.50
2018-02-25T13:35:48.787Z,50.90
2018-02-25T13:38:17.045Z,50.70
2018-02-25T13:40:44.533Z,50.00
2018-02-25T13:43:12.039Z,51.00
2018-02-25T13:45:39.510Z,51.80
2018-02-25T13:48:06.986Z,52.20
2018-02-25T13:50:35.245Z,52.20
2018-02-25T13:53:02.765Z,52.10
2018-02-25T13:55:30.323Z,53.80
2018-02-25T13:57:57.816Z,52.70
2018-02-25T14:00:25.351Z,53.10
2018-02-25T14:02:52.878Z,52.40
2018-02-25T14:05:21.117Z,53.30
2018-02-25T14:07:48.613Z,53.30
2018-02-25T14:10:16.831Z,53.90
2018-02-25T14:12:44.320Z,53.90
2018-02-25T14:15:12.568Z,54.60
2018-02-25T14:17:40.050Z,54.50
2018-02-25T14:20:08.314Z,56.30
2018-02-25T14:22:35.832Z,56.30
2018-02-25T14:25:03.315Z,57.90
2018-02-25T14:27:31.118Z,58.00
2018-02-25T14:29:59.356Z,59.10
2018-02-25T14:32:26.818Z,59.10
2018-02-25T14:34:54.605Z,58.50
2018-02-25T14:37:22.970Z,59.20
2018-02-25T14:39:51.117Z,60.00
2018-02-25T14:42:18.923Z,60.00
2018-02-25T14:44:47.194Z,59.90
2018-02-25T14:47:15.464Z,61.00
2018-02-25T14:49:43.740Z,61.60
2018-02-25T14:52:11.208Z,61.60
2018-02-25T14:54:39.463Z,63.70
2018-02-25T14:57:06.945Z,63.50
2018-02-25T14:59:34.492Z,63.80
2018-02-25T15:02:01.965Z,64.30
2018-02-25T15:04:30.529Z,62.50
2018-02-25T15:06:58.009Z,62.40
2018-02-25T15:09:26.275Z,63.50
2018-02-25T15:11:54.531Z,62.90
2018-02-25T15:14:22.005Z,62.90
2018-02-25T15:16:50.317Z,63.20
2018-02-25T15:19:17.787Z,63.10
2018-02-25T15:21:45.439Z,64.20
2018-02-25T15:24:12.908Z,65.60
2018-02-25T15:26:40.397Z,67.80
2018-02-25T15:29:07.889Z,69.30
2018-02-25T15:31:35.476Z,69.30
2018-02-25T15:34:03.292Z,70.90
2018-02-25T15:36:30.766Z,70.90
2018-02-25T15:38:58.258Z,70.40
2018-02-25T15:41:26.115Z,70.80
2018-02-25T15:43:53.601Z,71.90
2018-02-25T15:46:21.095Z,73.50
2018-02-25T15:48:49.336Z,74.30
2018-02-25T15:51:16.824Z,74.30
2018-02-25T15:53:45.139Z,75.20
2018-02-25T15:56:12.699Z,75.30
2018-02-25T15:58:40.169Z,77.10
2018-02-25T16:01:07.637Z,77.90
2018-02-25T16:03:35.440Z,79.90
2018-02-25T16:06:03.697Z,82.90
2018-02-25T16:08:31.163Z,82.90
2018-02-25T16:10:58.952Z,85.80
2018-02-25T16:13:27.303Z,86.00
2018-02-25T16:15:54.803Z,88.50
2018-02-25T16:18:22.295Z,90.10
2018-02-25T16:20:49.825Z,88.50
2018-02-25T16:23:17.289Z,87.30
2018-02-25T16:25:45.148Z,88.50
2018-02-25T16:28:12.617Z,90.70
2018-02-25T16:30:40.121Z,90.90
2018-02-25T16:33:07.988Z,91.80
2018-02-25T16:35:36.224Z,94.10
2018-02-25T16:38:03.700Z,94.00
2018-02-25T16:40:31.188Z,93.10
2018-02-25T16:42:58.672Z,93.20
2018-02-25T16:45:26.164Z,94.40
2018-02-25T16:47:53.975Z,95.40
2018-02-25T16:50:21.480Z,95.70
2018-02-25T16:52:48.962Z,96.80
2018-02-25T16:55:16.452Z,97.60
2018-02-25T16:57:43.931Z,97.50
2018-02-25T17:00:11.430Z,98.00
2018-02-25T17:02:39.221Z,99.70
2018-02-25T17:05:07.464Z,99.90
2018-02-25T17:07:35.086Z,99.90
2018-02-25T17:10:02.647Z,99.90
2018-02-25T17:12:30.121Z,99.90
2018-02-25T17:14:57.624Z,99.90
2018-02-25T17:17:25.927Z,99.90
2018-02-25T17:19:53.426Z,99.90
2018-02-25T17:22:20.907Z,99.90
2018-02-25T17:24:49.191Z,99.90
2018-02-25T17:27:17.426Z,99.90
2018-02-25T17:29:44.917Z,99.90
2018-02-25T17:32:12.442Z,99.90
2018-02-25T17:34:39.935Z,99.90
2018-02-25T17:37:07.448Z,99.90
2018-02-25T17:39:35.362Z,99.90
2018-02-25T17:42:03.605Z,99.90
2018-02-25T17:44:31.080Z,99.90
2018-02-25T17:46:58.857Z,99.90
2018-02-25T17:49:27.101Z,99.90
2018-02-25T17:51:54.567Z,99.90
2018-02-25T17:54:22.353Z,99.90
2018-02-25T17:56:50.779Z,99.90
2018-02-25T17:59:18.266Z,99.90
2018-02-25T18:01:46.077Z,99.90
2018-02-25T18:04:13.576Z,99.90
2018-02-25T18:06:41.068Z,99.90
2018-02-25T18:09:09.811Z,99.90
2018-02-25T18:11:37.278Z,99.90
2018-02-25T18:14:04.749Z,99.90
2018-02-25T18:16:32.748Z,99.90
2018-02-25T18:19:00.986Z,99.90
2018-02-25T18:21:28.468Z,99.90
2018-02-25T18:23:55.957Z,99.90
2018-02-25T18:26:23.417Z,99.90
2018-02-25T18:28:50.888Z,99.90
2018-02-25T18:31:18.729Z,99.90
2018-02-25T18:33:46.265Z,99.90
2018-02-25T18:36:13.746Z,99.90
2018-02-25T18:38:41.508Z,99.90
2018-02-25T18:41:09.432Z,99.90
2018-02-25T18:43:36.919Z,99.90
2018-02-25T18:46:05.271Z,99.90
2018-02-25T18:48:32.779Z,99.90
2018-02-25T18:51:00.284Z,99.90
2018-02-25T18:53:28.048Z,99.90
2018-02-25T18:55:55.543Z,99.90
2018-02-25T18:58:23.843Z,99.90
2018-02-25T19:00:51.606Z,99.90
2018-02-25T19:03:19.123Z,99.90
2018-02-25T19:05:46.611Z,99.90
2018-02-25T19:08:14.126Z,99.90
2018-02-25T19:10:41.608Z,99.90
2018-02-25T19:13:09.879Z,99.90
2018-02-25T19:15:38.124Z,99.90
2018-02-25T19:18:05.624Z,99.90
2018-02-25T19:20:33.124Z,99.90
2018-02-25T19:23:00.673Z,99.90
2018-02-25T19:25:28.181Z,99.90
2018-02-25T19:27:56.420Z,99.90
2018-02-25T19:30:23.943Z,99.90
2018-02-25T19:32:51.409Z,99.90
2018-02-25T19:35:18.928Z,99.90
2018-02-25T19:37:52.028Z,99.90
2018-02-25T19:40:25.935Z,99.90
2018-02-25T19:42:54.522Z,99.90
2018-02-25T19:45:22.773Z,99.90
2018-02-25T19:47:50.239Z,99.90
2018-02-25T19:50:18.823Z,99.90
2018-02-25T19:52:47.121Z,99.90
2018-02-25T19:55:15.425Z,99.90
2018-02-25T19:57:42.936Z,99.90
2018-02-25T20:00:10.419Z,99.90
2018-02-25T20:02:38.644Z,99.90
2018-02-25T20:05:06.457Z,99.90
2018-02-25T20:07:33.937Z,99.90
2018-02-25T20:10:01.439Z,99.90
2018-02-25T20:12:29.777Z,99.90
2018-02-25T20:14:57.280Z,99.90
2018-02-25T20:17:25.549Z,99.90
2018-02-25T20:19:53.037Z,99.90
2018-02-25T20:22:20.526Z,99.90
2018-02-25T20:24:48.033Z,99.90
2018-02-25T20:27:16.559Z,99.90
2018-02-25T20:29:44.037Z,99.90
2018-02-25T20:32:11.521Z,99.90
2018-02-25T20:34:40.260Z,99.90
2018-02-25T20:37:07.752Z,99.90
2018-02-25T20:39:35.244Z,99.90
2018-02-25T20:42:03.141Z,99.90
2018-02-25T20:44:30.728Z,99.90
2018-02-25T20:46:58.203Z,99.90
2018-02-25T20:49:25.698Z,99.90
2018-02-25T20:51:53.179Z,99.90
2018-02-25T20:54:20.662Z,99.90
2018-02-25T20:56:48.484Z,99.90
2018-02-25T20:59:15.952Z,99.90
2018-02-25T21:01:43.490Z,99.90
2018-02-25T21:04:11.352Z,99.90
2018-02-25T21:06:39.598Z,99.90
2018-02-25T21:09:07.060Z,99.90
2018-02-25T21:11:34.561Z,99.90
2018-02-25T21:14:02.053Z,99.90
2018-02-25T21:16:29.526Z,99.90
2018-02-25T21:18:57.027Z,99.90
2018-02-25T21:21:24.523Z,99.90
2018-02-25T21:23:52.012Z,99.90
2018-02-25T21:26:20.284Z,99.90
2018-02-25T21:28:47.781Z,99.90
2018-02-25T21:31:15.284Z,99.90
2018-02-25T21:33:43.400Z,99.90
2018-02-25T21:36:10.981Z,99.90
2018-02-25T21:38:38.455Z,99.90
2018-02-25T21:41:05.932Z,99.90
2018-02-25T21:43:33.460Z,99.90
2018-02-25T21:46:01.011Z,99.90
2018-02-25T21:48:28.853Z,99.90
2018-02-25T21:50:56.442Z,99.90
2018-02-25T21:53:23.996Z,99.90
2018-02-25T21:55:57.398Z,99.90
2018-02-25T21:58:30.379Z,99.90
2018-02-25T22:01:03.833Z,99.90
2018-02-25T22:03:36.933Z,99.90
2018-02-25T22:06:05.251Z,99.90
2018-02-25T22:08:32.755Z,99.90
2018-02-25T22:11:00.252Z,99.90
2018-02-25T22:13:27.984Z,99.90
2018-02-25T22:15:56.401Z,99.90
2018-02-25T22:18:23.958Z,99.90
2018-02-25T22:20:51.448Z,99.90
2018-02-25T22:23:18.965Z,99.90
2018-02-25T22:25:46.443Z,99.90
2018-02-25T22:28:13.952Z,99.90
2018-02-25T22:30:41.547Z,99.90
2018-02-25T22:33:09.044Z,99.90
2018-02-25T22:35:37.132Z,99.90
2018-02-25T22:38:04.613Z,99.90
2018-02-25T22:40:32.193Z,99.90
2018-02-25T22:42:59.697Z,99.90
2018-02-25T22:45:27.186Z,99.90
2018-02-25T22:47:54.672Z,99.90
2018-02-25T22:50:22.520Z,99.90
2018-02-25T22:52:50.003Z,99.90
2018-02-25T22:55:17.498Z,99.90
2018-02-25T22:57:45.107Z,99.90
2018-02-25T23:00:12.591Z,99.90
2018-02-25T23:02:40.056Z,99.90
2018-02-25T23:05:07.997Z,99.90
2018-02-25T23:07:35.478Z,99.90
2018-02-25T23:10:02.940Z,99.90
2018-02-25T23:12:30.699Z,99.90
2018-02-25T23:14:58.166Z,99.90
2018-02-25T23:17:25.666Z,99.90
2018-02-25T23:19:53.507Z,99.90
2018-02-25T23:22:21.822Z,99.90
2018-02-25T23:24:49.312Z,99.90
2018-02-25T23:27:17.148Z,99.90
2018-02-25T23:29:44.625Z,99.90
2018-02-25T23:32:12.125Z,99.90
2018-02-25T23:34:40.776Z,99.90
2018-02-25T23:37:08.314Z,99.90
2018-02-25T23:39:35.800Z,99.90
2018-02-25T23:42:03.590Z,99.90
2018-02-25T23:44:31.866Z,99.90
2018-02-25T23:47:00.128Z,99.90
2018-02-25T23:49:28.151Z,99.90
2018-02-25T23:51:55.672Z,99.90
2018-02-25T23:54:23.180Z,99.90
2018-02-25T23:56:51.002Z,99.90
2018-02-25T23:59:18.479Z,99.90
